sensor_id;sensor_type;location;lat;lon;timestamp;temperature;humidity
6824;DHT22;58633;49.470;11.004;2023-04-03T00:00:06;7.20;56.20
6824;DHT22;58633;49.470;11.004;2023-04-03T00:09:51;7.00;56.10
6824;DHT22;58633;49.470;11.004;2023-04-03T00:12:17;6.50;55.80
6824;DHT22;58633;49.470;11.004;2023-04-03T00:14:42;6.90;56.30
6824;DHT22;58633;49.470;11.004;2023-04-03T00:24:26;6.80;56.00
6824;DHT22;58633;49.470;11.004;2023-04-03T00:29:17;6.80;55.90
6824;DHT22;58633;49.470;11.004;2023-04-03T00:31:43;6.90;55.90
6824;DHT22;58633;49.470;11.004;2023-04-03T00:34:08;6.80;55.80
6824;DHT22;58633;49.470;11.004;2023-04-03T00:48:48;6.70;55.60
6824;DHT22;58633;49.470;11.004;2023-04-03T00:53:50;6.70;55.90
6824;DHT22;58633;49.470;11.004;2023-04-03T00:56:19;6.70;55.90
6824;DHT22;58633;49.470;11.004;2023-04-03T00:58:57;6.70;55.80
6824;DHT22;58633;49.470;11.004;2023-04-03T01:01:27;6.60;55.90
6824;DHT22;58633;49.470;11.004;2023-04-03T01:06:23;6.50;55.90
6824;DHT22;58633;49.470;11.004;2023-04-03T01:09:02;6.60;56.10
6824;DHT22;58633;49.470;11.004;2023-04-03T01:21:39;6.50;56.20
6824;DHT22;58633;49.470;11.004;2023-04-03T01:29:01;6.60;56.30
6824;DHT22;58633;49.470;11.004;2023-04-03T01:31:52;6.50;56.60
6824;DHT22;58633;49.470;11.004;2023-04-03T01:34:18;6.70;56.40
6824;DHT22;58633;49.470;11.004;2023-04-03T01:36:44;6.40;56.20
6824;DHT22;58633;49.470;11.004;2023-04-03T01:39:10;6.50;56.30
6824;DHT22;58633;49.470;11.004;2023-04-03T01:44:07;6.40;56.50
6824;DHT22;58633;49.470;11.004;2023-04-03T01:49:12;6.40;56.50
6824;DHT22;58633;49.470;11.004;2023-04-03T02:16:07;6.00;56.30
6824;DHT22;58633;49.470;11.004;2023-04-03T02:18:32;6.30;56.70
6824;DHT22;58633;49.470;11.004;2023-04-03T02:23:24;6.50;56.80
6824;DHT22;58633;49.470;11.004;2023-04-03T02:25:49;6.50;56.70
6824;DHT22;58633;49.470;11.004;2023-04-03T02:30:41;5.90;56.40
6824;DHT22;58633;49.470;11.004;2023-04-03T02:33:06;6.10;57.00
6824;DHT22;58633;49.470;11.004;2023-04-03T02:35:32;6.00;56.50
6824;DHT22;58633;49.470;11.004;2023-04-03T02:37:57;6.00;57.00
6824;DHT22;58633;49.470;11.004;2023-04-03T02:40:23;6.10;56.80
6824;DHT22;58633;49.470;11.004;2023-04-03T02:42:48;6.10;56.80
6824;DHT22;58633;49.470;11.004;2023-04-03T02:47:40;6.00;56.80
6824;DHT22;58633;49.470;11.004;2023-04-03T02:50:06;5.40;56.60
6824;DHT22;58633;49.470;11.004;2023-04-03T02:59:53;5.80;57.30
6824;DHT22;58633;49.470;11.004;2023-04-03T03:24:12;5.60;58.00
6824;DHT22;58633;49.470;11.004;2023-04-03T03:26:38;5.60;58.10
6824;DHT22;58633;49.470;11.004;2023-04-03T03:31:29;5.60;58.50
6824;DHT22;58633;49.470;11.004;2023-04-03T03:43:39;5.00;58.50
6824;DHT22;58633;49.470;11.004;2023-04-03T03:46:04;5.20;58.80
6824;DHT22;58633;49.470;11.004;2023-04-03T03:50:56;5.50;59.50
6824;DHT22;58633;49.470;11.004;2023-04-03T03:55:47;5.90;60.00
6824;DHT22;58633;49.470;11.004;2023-04-03T04:00:39;4.90;59.20
6824;DHT22;58633;49.470;11.004;2023-04-03T04:03:04;5.40;59.60
6824;DHT22;58633;49.470;11.004;2023-04-03T04:05:30;5.20;59.50
6824;DHT22;58633;49.470;11.004;2023-04-03T04:10:22;5.50;59.60
6824;DHT22;58633;49.470;11.004;2023-04-03T04:12:48;5.50;59.70
6824;DHT22;58633;49.470;11.004;2023-04-03T04:15:14;5.50;59.80
6824;DHT22;58633;49.470;11.004;2023-04-03T04:20:06;5.50;60.00
6824;DHT22;58633;49.470;11.004;2023-04-03T04:22:32;5.40;59.90
6824;DHT22;58633;49.470;11.004;2023-04-03T04:29:49;5.00;59.80
6824;DHT22;58633;49.470;11.004;2023-04-03T04:32:15;5.50;60.20
6824;DHT22;58633;49.470;11.004;2023-04-03T04:41:58;5.00;59.80
6824;DHT22;58633;49.470;11.004;2023-04-03T04:44:24;5.60;60.20
6824;DHT22;58633;49.470;11.004;2023-04-03T04:49:15;5.60;60.20
6824;DHT22;58633;49.470;11.004;2023-04-03T04:54:07;5.20;60.20
6824;DHT22;58633;49.470;11.004;2023-04-03T04:56:32;5.30;60.40
6824;DHT22;58633;49.470;11.004;2023-04-03T05:11:08;5.30;60.80
6824;DHT22;58633;49.470;11.004;2023-04-03T05:30:45;5.20;61.10
6824;DHT22;58633;49.470;11.004;2023-04-03T05:40:35;5.00;61.10
6824;DHT22;58633;49.470;11.004;2023-04-03T05:45:26;5.00;61.30
6824;DHT22;58633;49.470;11.004;2023-04-03T05:47:52;5.60;61.80
6824;DHT22;58633;49.470;11.004;2023-04-03T05:52:45;5.00;61.50
6824;DHT22;58633;49.470;11.004;2023-04-03T05:55:12;4.70;61.20
6824;DHT22;58633;49.470;11.004;2023-04-03T06:00:08;5.10;61.60
6824;DHT22;58633;49.470;11.004;2023-04-03T06:02:35;4.90;61.40
6824;DHT22;58633;49.470;11.004;2023-04-03T06:05:01;5.20;61.80
6824;DHT22;58633;49.470;11.004;2023-04-03T06:07:26;5.20;61.90
6824;DHT22;58633;49.470;11.004;2023-04-03T06:09:55;5.10;62.00
6824;DHT22;58633;49.470;11.004;2023-04-03T06:12:21;5.20;62.00
6824;DHT22;58633;49.470;11.004;2023-04-03T06:14:47;5.70;62.40
6824;DHT22;58633;49.470;11.004;2023-04-03T06:17:14;4.90;61.60
6824;DHT22;58633;49.470;11.004;2023-04-03T06:19:40;5.30;61.90
6824;DHT22;58633;49.470;11.004;2023-04-03T06:22:06;4.70;61.20
6824;DHT22;58633;49.470;11.004;2023-04-03T06:26:58;5.30;61.70
6824;DHT22;58633;49.470;11.004;2023-04-03T06:29:24;5.10;61.40
6824;DHT22;58633;49.470;11.004;2023-04-03T06:31:50;5.40;61.70
6824;DHT22;58633;49.470;11.004;2023-04-03T06:36:44;5.30;61.20
6824;DHT22;58633;49.470;11.004;2023-04-03T06:39:16;5.30;61.10
6824;DHT22;58633;49.470;11.004;2023-04-03T06:46:37;5.40;61.30
6824;DHT22;58633;49.470;11.004;2023-04-03T06:51:30;5.30;61.20
6824;DHT22;58633;49.470;11.004;2023-04-03T06:53:58;5.30;61.10
6824;DHT22;58633;49.470;11.004;2023-04-03T06:56:24;5.60;61.40
6824;DHT22;58633;49.470;11.004;2023-04-03T06:58:52;5.50;61.20
6824;DHT22;58633;49.470;11.004;2023-04-03T07:01:19;5.30;60.90
6824;DHT22;58633;49.470;11.004;2023-04-03T07:03:46;5.60;61.20
6824;DHT22;58633;49.470;11.004;2023-04-03T07:06:16;5.80;61.20
6824;DHT22;58633;49.470;11.004;2023-04-03T07:08:42;5.80;61.10
6824;DHT22;58633;49.470;11.004;2023-04-03T07:11:08;5.80;61.10
6824;DHT22;58633;49.470;11.004;2023-04-03T07:13:35;6.00;61.20
6824;DHT22;58633;49.470;11.004;2023-04-03T07:16:01;5.90;61.10
6824;DHT22;58633;49.470;11.004;2023-04-03T07:18:29;5.90;61.10
6824;DHT22;58633;49.470;11.004;2023-04-03T07:20:54;5.60;60.50
6824;DHT22;58633;49.470;11.004;2023-04-03T07:23:20;5.90;60.60
6824;DHT22;58633;49.470;11.004;2023-04-03T07:25:47;6.00;60.20
6824;DHT22;58633;49.470;11.004;2023-04-03T07:28:13;6.00;60.00
6824;DHT22;58633;49.470;11.004;2023-04-03T07:30:47;6.10;60.00
6824;DHT22;58633;49.470;11.004;2023-04-03T07:33:15;6.20;60.00
6824;DHT22;58633;49.470;11.004;2023-04-03T07:38:08;6.10;59.70
6824;DHT22;58633;49.470;11.004;2023-04-03T07:40:34;6.00;59.50
6824;DHT22;58633;49.470;11.004;2023-04-03T07:43:00;6.80;60.00
6824;DHT22;58633;49.470;11.004;2023-04-03T07:45:26;5.80;59.00
6824;DHT22;58633;49.470;11.004;2023-04-03T07:47:52;6.30;59.30
6824;DHT22;58633;49.470;11.004;2023-04-03T07:50:18;6.50;59.20
6824;DHT22;58633;49.470;11.004;2023-04-03T07:52:43;6.40;59.20
6824;DHT22;58633;49.470;11.004;2023-04-03T07:55:09;6.60;59.00
6824;DHT22;58633;49.470;11.004;2023-04-03T07:57:35;6.00;58.30
6824;DHT22;58633;49.470;11.004;2023-04-03T08:00:02;6.50;58.50
6824;DHT22;58633;49.470;11.004;2023-04-03T08:02:28;6.40;58.90
6824;DHT22;58633;49.470;11.004;2023-04-03T08:04:53;6.40;58.20
6824;DHT22;58633;49.470;11.004;2023-04-03T08:09:46;6.60;58.40
6824;DHT22;58633;49.470;11.004;2023-04-03T08:12:11;6.70;58.30
6824;DHT22;58633;49.470;11.004;2023-04-03T08:14:37;6.40;58.00
6824;DHT22;58633;49.470;11.004;2023-04-03T08:17:03;6.30;58.00
6824;DHT22;58633;49.470;11.004;2023-04-03T08:19:30;6.70;58.00
6824;DHT22;58633;49.470;11.004;2023-04-03T08:21:56;6.50;57.80
6824;DHT22;58633;49.470;11.004;2023-04-03T08:31:42;6.80;57.40
6824;DHT22;58633;49.470;11.004;2023-04-03T08:34:08;6.80;57.30
6824;DHT22;58633;49.470;11.004;2023-04-03T08:36:33;6.80;57.00
6824;DHT22;58633;49.470;11.004;2023-04-03T08:38:59;6.80;56.80
6824;DHT22;58633;49.470;11.004;2023-04-03T08:49:32;7.10;56.10
6824;DHT22;58633;49.470;11.004;2023-04-03T08:52:02;7.10;55.80
6824;DHT22;58633;49.470;11.004;2023-04-03T08:54:41;6.80;55.20
6824;DHT22;58633;49.470;11.004;2023-04-03T08:57:13;6.90;55.10
6824;DHT22;58633;49.470;11.004;2023-04-03T08:59:39;7.20;55.20
6824;DHT22;58633;49.470;11.004;2023-04-03T09:02:23;7.10;54.70
6824;DHT22;58633;49.470;11.004;2023-04-03T09:07:53;7.10;54.50
6824;DHT22;58633;49.470;11.004;2023-04-03T09:10:26;7.10;54.30
6824;DHT22;58633;49.470;11.004;2023-04-03T09:13:08;7.10;54.10
6824;DHT22;58633;49.470;11.004;2023-04-03T09:18:20;7.20;54.20
6824;DHT22;58633;49.470;11.004;2023-04-03T09:21:03;7.30;54.50
6824;DHT22;58633;49.470;11.004;2023-04-03T09:26:10;7.40;53.90
6824;DHT22;58633;49.470;11.004;2023-04-03T09:28:40;7.80;53.80
6824;DHT22;58633;49.470;11.004;2023-04-03T09:33:45;7.40;52.80
6824;DHT22;58633;49.470;11.004;2023-04-03T09:36:12;7.70;53.20
6824;DHT22;58633;49.470;11.004;2023-04-03T09:41:07;7.50;52.10
6824;DHT22;58633;49.470;11.004;2023-04-03T09:43:38;7.30;51.70
6824;DHT22;58633;49.470;11.004;2023-04-03T09:46:30;7.60;51.60
6824;DHT22;58633;49.470;11.004;2023-04-03T09:49:05;7.50;51.50
6824;DHT22;58633;49.470;11.004;2023-04-03T09:51:32;7.60;51.30
6824;DHT22;58633;49.470;11.004;2023-04-03T09:56:27;7.70;51.20
6824;DHT22;58633;49.470;11.004;2023-04-03T10:01:35;7.60;50.70
6824;DHT22;58633;49.470;11.004;2023-04-03T10:04:13;7.80;50.90
6824;DHT22;58633;49.470;11.004;2023-04-03T10:06:48;7.90;51.10
6824;DHT22;58633;49.470;11.004;2023-04-03T10:09:23;8.00;50.90
6824;DHT22;58633;49.470;11.004;2023-04-03T10:14:34;8.20;51.00
6824;DHT22;58633;49.470;11.004;2023-04-03T10:17:17;8.20;50.50
6824;DHT22;58633;49.470;11.004;2023-04-03T10:20:22;8.30;50.30
6824;DHT22;58633;49.470;11.004;2023-04-03T10:25:57;8.50;49.20
6824;DHT22;58633;49.470;11.004;2023-04-03T10:28:39;8.60;48.70
6824;DHT22;58633;49.470;11.004;2023-04-03T10:31:21;8.60;48.50
6824;DHT22;58633;49.470;11.004;2023-04-03T10:36:58;8.80;47.60
6824;DHT22;58633;49.470;11.004;2023-04-03T10:39:47;8.80;47.80
6824;DHT22;58633;49.470;11.004;2023-04-03T10:42:35;8.80;47.60
6824;DHT22;58633;49.470;11.004;2023-04-03T10:48:11;9.00;47.20
6824;DHT22;58633;49.470;11.004;2023-04-03T10:53:52;9.20;47.60
6824;DHT22;58633;49.470;11.004;2023-04-03T10:56:30;9.10;47.80
6824;DHT22;58633;49.470;11.004;2023-04-03T11:01:35;9.20;47.40
6824;DHT22;58633;49.470;11.004;2023-04-03T11:04:04;9.20;47.40
6824;DHT22;58633;49.470;11.004;2023-04-03T11:06:45;9.20;47.20
6824;DHT22;58633;49.470;11.004;2023-04-03T11:09:24;9.40;47.00
6824;DHT22;58633;49.470;11.004;2023-04-03T11:12:00;9.40;47.20
6824;DHT22;58633;49.470;11.004;2023-04-03T11:17:05;9.50;46.20
6824;DHT22;58633;49.470;11.004;2023-04-03T11:19:41;9.60;46.40
6824;DHT22;58633;49.470;11.004;2023-04-03T11:25:09;9.90;45.70
6824;DHT22;58633;49.470;11.004;2023-04-03T11:27:44;10.00;44.20
6824;DHT22;58633;49.470;11.004;2023-04-03T11:30:27;10.00;43.90
6824;DHT22;58633;49.470;11.004;2023-04-03T11:33:18;10.10;43.60
6824;DHT22;58633;49.470;11.004;2023-04-03T11:35:48;10.20;44.10
6824;DHT22;58633;49.470;11.004;2023-04-03T11:38:26;10.00;44.00
6824;DHT22;58633;49.470;11.004;2023-04-03T11:40:54;10.20;43.70
6824;DHT22;58633;49.470;11.004;2023-04-03T11:43:27;10.40;43.90
6824;DHT22;58633;49.470;11.004;2023-04-03T11:46:08;10.00;43.30
6824;DHT22;58633;49.470;11.004;2023-04-03T11:53:38;10.30;42.90
6824;DHT22;58633;49.470;11.004;2023-04-03T12:01:52;10.30;42.60
6824;DHT22;58633;49.470;11.004;2023-04-03T12:04:20;10.60;42.50
6824;DHT22;58633;49.470;11.004;2023-04-03T12:09:28;10.70;42.30
6824;DHT22;58633;49.470;11.004;2023-04-03T12:11:56;11.20;42.50
6824;DHT22;58633;49.470;11.004;2023-04-03T12:14:23;11.10;42.50
6824;DHT22;58633;49.470;11.004;2023-04-03T12:16:53;11.00;42.30
6824;DHT22;58633;49.470;11.004;2023-04-03T12:19:39;11.10;42.00
6824;DHT22;58633;49.470;11.004;2023-04-03T12:22:14;11.20;42.30
6824;DHT22;58633;49.470;11.004;2023-04-03T12:24:47;11.30;41.20
6824;DHT22;58633;49.470;11.004;2023-04-03T12:27:33;11.00;40.60
6824;DHT22;58633;49.470;11.004;2023-04-03T12:30:05;11.20;40.60
6824;DHT22;58633;49.470;11.004;2023-04-03T12:35:36;11.20;40.50
6824;DHT22;58633;49.470;11.004;2023-04-03T12:38:22;11.10;40.90
6824;DHT22;58633;49.470;11.004;2023-04-03T12:41:25;11.30;41.20
6824;DHT22;58633;49.470;11.004;2023-04-03T12:46:44;12.10;41.90
6824;DHT22;58633;49.470;11.004;2023-04-03T12:49:36;12.10;41.40
6824;DHT22;58633;49.470;11.004;2023-04-03T12:52:29;12.60;41.70
6824;DHT22;58633;49.470;11.004;2023-04-03T12:54:56;12.20;41.20
6824;DHT22;58633;49.470;11.004;2023-04-03T12:57:26;12.20;41.60
6824;DHT22;58633;49.470;11.004;2023-04-03T13:02:24;12.70;41.10
6824;DHT22;58633;49.470;11.004;2023-04-03T13:04:55;12.80;40.00
6824;DHT22;58633;49.470;11.004;2023-04-03T13:07:35;12.90;40.50
6824;DHT22;58633;49.470;11.004;2023-04-03T13:10:15;12.90;40.20
6824;DHT22;58633;49.470;11.004;2023-04-03T13:12:49;13.20;40.10
6824;DHT22;58633;49.470;11.004;2023-04-03T13:15:27;13.20;40.00
6824;DHT22;58633;49.470;11.004;2023-04-03T13:17:53;12.00;38.40
6824;DHT22;58633;49.470;11.004;2023-04-03T13:20:28;13.20;39.30
6824;DHT22;58633;49.470;11.004;2023-04-03T13:23:05;13.30;39.10
6824;DHT22;58633;49.470;11.004;2023-04-03T13:25:35;13.20;39.10
6824;DHT22;58633;49.470;11.004;2023-04-03T13:28:04;13.00;38.90
6824;DHT22;58633;49.470;11.004;2023-04-03T13:30:33;13.20;38.80
6824;DHT22;58633;49.470;11.004;2023-04-03T13:33:02;13.20;38.80
6824;DHT22;58633;49.470;11.004;2023-04-03T13:35:38;13.50;39.00
6824;DHT22;58633;49.470;11.004;2023-04-03T13:38:26;13.70;38.80
6824;DHT22;58633;49.470;11.004;2023-04-03T13:40:57;13.70;38.50
6824;DHT22;58633;49.470;11.004;2023-04-03T13:43:32;13.90;38.30
6824;DHT22;58633;49.470;11.004;2023-04-03T13:48:39;14.20;38.00
6824;DHT22;58633;49.470;11.004;2023-04-03T13:51:26;14.30;37.80
6824;DHT22;58633;49.470;11.004;2023-04-03T13:54:00;14.50;37.60
6824;DHT22;58633;49.470;11.004;2023-04-03T13:56:32;14.60;38.00
6824;DHT22;58633;49.470;11.004;2023-04-03T14:04:31;15.40;36.90
6824;DHT22;58633;49.470;11.004;2023-04-03T14:06:58;15.30;36.10
6824;DHT22;58633;49.470;11.004;2023-04-03T14:09:26;15.00;35.80
6824;DHT22;58633;49.470;11.004;2023-04-03T14:11:55;15.10;35.90
6824;DHT22;58633;49.470;11.004;2023-04-03T14:14:26;15.30;36.20
6824;DHT22;58633;49.470;11.004;2023-04-03T14:16:58;15.60;36.20
6824;DHT22;58633;49.470;11.004;2023-04-03T14:19:35;16.00;36.50
6824;DHT22;58633;49.470;11.004;2023-04-03T14:22:16;15.60;35.80
6824;DHT22;58633;49.470;11.004;2023-04-03T14:24:42;15.90;35.90
6824;DHT22;58633;49.470;11.004;2023-04-03T14:27:17;16.00;35.50
6824;DHT22;58633;49.470;11.004;2023-04-03T14:29:43;17.10;36.60
6824;DHT22;58633;49.470;11.004;2023-04-03T14:32:12;15.80;34.70
6824;DHT22;58633;49.470;11.004;2023-04-03T14:34:38;16.50;35.50
6824;DHT22;58633;49.470;11.004;2023-04-03T14:37:05;16.50;35.40
6824;DHT22;58633;49.470;11.004;2023-04-03T14:39:31;16.90;35.30
6824;DHT22;58633;49.470;11.004;2023-04-03T14:41:56;16.70;34.40
6824;DHT22;58633;49.470;11.004;2023-04-03T14:44:22;16.70;34.80
6824;DHT22;58633;49.470;11.004;2023-04-03T14:46:48;16.60;34.70
6824;DHT22;58633;49.470;11.004;2023-04-03T14:49:25;16.60;35.00
6824;DHT22;58633;49.470;11.004;2023-04-03T14:54:20;16.90;34.10
6824;DHT22;58633;49.470;11.004;2023-04-03T14:56:51;16.90;33.50
6824;DHT22;58633;49.470;11.004;2023-04-03T14:59:16;16.80;33.30
6824;DHT22;58633;49.470;11.004;2023-04-03T15:01:45;16.70;33.80
6824;DHT22;58633;49.470;11.004;2023-04-03T15:04:15;16.70;33.80
6824;DHT22;58633;49.470;11.004;2023-04-03T15:06:42;16.50;34.00
6824;DHT22;58633;49.470;11.004;2023-04-03T15:09:23;16.70;33.70
6824;DHT22;58633;49.470;11.004;2023-04-03T15:11:50;16.20;33.40
6824;DHT22;58633;49.470;11.004;2023-04-03T15:14:16;16.20;34.30
6824;DHT22;58633;49.470;11.004;2023-04-03T15:19:08;16.10;34.10
6824;DHT22;58633;49.470;11.004;2023-04-03T15:21:34;16.40;34.80
6824;DHT22;58633;49.470;11.004;2023-04-03T15:24:00;15.90;34.70
6824;DHT22;58633;49.470;11.004;2023-04-03T15:26:25;16.00;34.00
6824;DHT22;58633;49.470;11.004;2023-04-03T15:28:51;15.70;33.70
6824;DHT22;58633;49.470;11.004;2023-04-03T15:31:17;18.70;36.70
6824;DHT22;58633;49.470;11.004;2023-04-03T15:33:42;15.60;33.60
6824;DHT22;58633;49.470;11.004;2023-04-03T15:36:08;15.70;33.40
6824;DHT22;58633;49.470;11.004;2023-04-03T15:38:34;15.70;33.50
6824;DHT22;58633;49.470;11.004;2023-04-03T15:41:00;15.60;33.50
6824;DHT22;58633;49.470;11.004;2023-04-03T15:43:26;15.60;33.30
6824;DHT22;58633;49.470;11.004;2023-04-03T15:48:17;15.40;32.40
6824;DHT22;58633;49.470;11.004;2023-04-03T15:50:43;15.60;33.60
6824;DHT22;58633;49.470;11.004;2023-04-03T15:53:09;15.40;33.90
6824;DHT22;58633;49.470;11.004;2023-04-03T15:55:37;15.50;35.20
6824;DHT22;58633;49.470;11.004;2023-04-03T15:58:03;15.90;36.00
6824;DHT22;58633;49.470;11.004;2023-04-03T16:00:30;15.60;34.50
6824;DHT22;58633;49.470;11.004;2023-04-03T16:03:00;15.30;33.90
6824;DHT22;58633;49.470;11.004;2023-04-03T16:05:29;15.50;33.40
6824;DHT22;58633;49.470;11.004;2023-04-03T16:10:21;15.30;34.40
6824;DHT22;58633;49.470;11.004;2023-04-03T16:12:47;15.30;34.80
6824;DHT22;58633;49.470;11.004;2023-04-03T16:15:12;15.30;34.90
6824;DHT22;58633;49.470;11.004;2023-04-03T16:17:39;15.10;33.40
6824;DHT22;58633;49.470;11.004;2023-04-03T16:20:07;15.00;32.70
6824;DHT22;58633;49.470;11.004;2023-04-03T16:22:33;14.90;33.00
6824;DHT22;58633;49.470;11.004;2023-04-03T16:25:00;14.80;33.10
6824;DHT22;58633;49.470;11.004;2023-04-03T16:27:26;14.60;33.00
6824;DHT22;58633;49.470;11.004;2023-04-03T16:29:56;14.70;32.80
6824;DHT22;58633;49.470;11.004;2023-04-03T16:32:22;14.60;32.90
6824;DHT22;58633;49.470;11.004;2023-04-03T16:34:48;15.00;33.40
6824;DHT22;58633;49.470;11.004;2023-04-03T16:37:15;14.50;33.60
6824;DHT22;58633;49.470;11.004;2023-04-03T16:39:41;14.40;33.80
6824;DHT22;58633;49.470;11.004;2023-04-03T16:42:06;14.70;33.10
6824;DHT22;58633;49.470;11.004;2023-04-03T16:44:34;14.20;33.00
6824;DHT22;58633;49.470;11.004;2023-04-03T16:46:59;13.50;32.50
6824;DHT22;58633;49.470;11.004;2023-04-03T16:49:25;13.00;32.60
6824;DHT22;58633;49.470;11.004;2023-04-03T16:51:52;12.90;32.90
6824;DHT22;58633;49.470;11.004;2023-04-03T16:54:18;12.80;33.30
6824;DHT22;58633;49.470;11.004;2023-04-03T16:56:43;12.50;33.30
6824;DHT22;58633;49.470;11.004;2023-04-03T16:59:09;12.20;33.20
6824;DHT22;58633;49.470;11.004;2023-04-03T17:01:34;12.30;33.70
6824;DHT22;58633;49.470;11.004;2023-04-03T17:04:00;11.40;33.40
6824;DHT22;58633;49.470;11.004;2023-04-03T17:06:25;11.70;34.10
6824;DHT22;58633;49.470;11.004;2023-04-03T17:08:51;11.00;34.30
6824;DHT22;58633;49.470;11.004;2023-04-03T17:11:18;10.90;34.50
6824;DHT22;58633;49.470;11.004;2023-04-03T17:13:43;10.90;35.00
6824;DHT22;58633;49.470;11.004;2023-04-03T17:16:12;10.60;35.00
6824;DHT22;58633;49.470;11.004;2023-04-03T17:18:38;10.00;34.70
6824;DHT22;58633;49.470;11.004;2023-04-03T17:21:05;9.90;36.00
6824;DHT22;58633;49.470;11.004;2023-04-03T17:23:31;9.50;36.00
6824;DHT22;58633;49.470;11.004;2023-04-03T17:26:00;10.10;35.90
6824;DHT22;58633;49.470;11.004;2023-04-03T17:28:25;9.40;36.60
6824;DHT22;58633;49.470;11.004;2023-04-03T17:30:58;9.20;36.60
6824;DHT22;58633;49.470;11.004;2023-04-03T17:33:24;9.40;37.00
6824;DHT22;58633;49.470;11.004;2023-04-03T17:35:51;9.00;36.80
6824;DHT22;58633;49.470;11.004;2023-04-03T17:38:17;8.50;36.70
6824;DHT22;58633;49.470;11.004;2023-04-03T17:40:43;8.60;37.10
6824;DHT22;58633;49.470;11.004;2023-04-03T17:43:10;8.60;37.20
6824;DHT22;58633;49.470;11.004;2023-04-03T17:45:36;8.80;37.60
6824;DHT22;58633;49.470;11.004;2023-04-03T17:48:01;7.90;37.10
6824;DHT22;58633;49.470;11.004;2023-04-03T17:52:54;8.10;38.00
6824;DHT22;58633;49.470;11.004;2023-04-03T18:00:12;8.30;38.90
6824;DHT22;58633;49.470;11.004;2023-04-03T18:05:04;7.80;38.60
6824;DHT22;58633;49.470;11.004;2023-04-03T18:07:30;7.20;38.40
6824;DHT22;58633;49.470;11.004;2023-04-03T18:09:56;8.00;39.20
6824;DHT22;58633;49.470;11.004;2023-04-03T18:12:23;7.40;38.90
6824;DHT22;58633;49.470;11.004;2023-04-03T18:14:49;9.10;40.70
6824;DHT22;58633;49.470;11.004;2023-04-03T18:17:14;7.30;39.40
6824;DHT22;58633;49.470;11.004;2023-04-03T18:19:40;7.60;39.60
6824;DHT22;58633;49.470;11.004;2023-04-03T18:22:11;7.00;39.30
6824;DHT22;58633;49.470;11.004;2023-04-03T18:27:08;7.00;39.70
6824;DHT22;58633;49.470;11.004;2023-04-03T18:29:35;6.90;39.80
6824;DHT22;58633;49.470;11.004;2023-04-03T18:32:02;7.00;40.30
6824;DHT22;58633;49.470;11.004;2023-04-03T18:34:29;6.80;40.00
6824;DHT22;58633;49.470;11.004;2023-04-03T18:36:55;6.70;40.00
6824;DHT22;58633;49.470;11.004;2023-04-03T18:41:47;6.90;40.40
6824;DHT22;58633;49.470;11.004;2023-04-03T18:44:15;6.90;40.40
6824;DHT22;58633;49.470;11.004;2023-04-03T18:46:43;6.80;40.50
6824;DHT22;58633;49.470;11.004;2023-04-03T18:49:09;6.40;40.40
6824;DHT22;58633;49.470;11.004;2023-04-03T18:51:36;6.80;40.90
6824;DHT22;58633;49.470;11.004;2023-04-03T18:58:57;5.70;40.30
6824;DHT22;58633;49.470;11.004;2023-04-03T19:01:23;6.00;40.70
6824;DHT22;58633;49.470;11.004;2023-04-03T19:08:40;5.90;41.00
6824;DHT22;58633;49.470;11.004;2023-04-03T19:11:06;6.10;41.60
6824;DHT22;58633;49.470;11.004;2023-04-03T19:15:58;6.10;41.40
6824;DHT22;58633;49.470;11.004;2023-04-03T19:18:28;6.00;41.50
6824;DHT22;58633;49.470;11.004;2023-04-03T19:20:54;6.00;41.60
6824;DHT22;58633;49.470;11.004;2023-04-03T19:28:12;5.70;41.50
6824;DHT22;58633;49.470;11.004;2023-04-03T19:30:39;5.90;42.20
6824;DHT22;58633;49.470;11.004;2023-04-03T19:33:05;5.90;42.80
6824;DHT22;58633;49.470;11.004;2023-04-03T19:37:57;6.10;41.90
6824;DHT22;58633;49.470;11.004;2023-04-03T19:40:22;6.10;41.90
6824;DHT22;58633;49.470;11.004;2023-04-03T19:42:49;5.90;41.80
6824;DHT22;58633;49.470;11.004;2023-04-03T19:45:16;5.60;42.00
6824;DHT22;58633;49.470;11.004;2023-04-03T19:50:11;5.70;42.40
6824;DHT22;58633;49.470;11.004;2023-04-03T19:55:03;5.70;42.50
6824;DHT22;58633;49.470;11.004;2023-04-03T19:59:55;5.50;42.40
6824;DHT22;58633;49.470;11.004;2023-04-03T20:02:21;4.90;42.20
6824;DHT22;58633;49.470;11.004;2023-04-03T20:04:46;5.00;42.50
6824;DHT22;58633;49.470;11.004;2023-04-03T20:09:38;5.50;43.00
6824;DHT22;58633;49.470;11.004;2023-04-03T20:14:30;5.20;42.70
6824;DHT22;58633;49.470;11.004;2023-04-03T20:16:56;5.30;43.00
6824;DHT22;58633;49.470;11.004;2023-04-03T20:19:22;5.20;43.00
6824;DHT22;58633;49.470;11.004;2023-04-03T20:21:50;5.20;43.50
6824;DHT22;58633;49.470;11.004;2023-04-03T20:24:16;5.10;43.10
6824;DHT22;58633;49.470;11.004;2023-04-03T20:26:41;5.10;43.60
6824;DHT22;58633;49.470;11.004;2023-04-03T20:29:10;5.80;43.90
6824;DHT22;58633;49.470;11.004;2023-04-03T20:34:04;5.50;44.00
6824;DHT22;58633;49.470;11.004;2023-04-03T20:36:29;5.20;44.00
6824;DHT22;58633;49.470;11.004;2023-04-03T20:41:22;4.90;44.00
6824;DHT22;58633;49.470;11.004;2023-04-03T20:46:13;5.10;44.40
6824;DHT22;58633;49.470;11.004;2023-04-03T20:48:43;4.60;44.20
6824;DHT22;58633;49.470;11.004;2023-04-03T20:51:10;4.60;44.30
6824;DHT22;58633;49.470;11.004;2023-04-03T20:56:06;4.70;44.50
6824;DHT22;58633;49.470;11.004;2023-04-03T20:58:34;4.50;44.30
6824;DHT22;58633;49.470;11.004;2023-04-03T21:03:27;4.40;44.40
6824;DHT22;58633;49.470;11.004;2023-04-03T21:20:18;3.90;44.40
6824;DHT22;58633;49.470;11.004;2023-04-03T21:22:44;4.10;44.60
6824;DHT22;58633;49.470;11.004;2023-04-03T21:25:10;4.20;44.80
6824;DHT22;58633;49.470;11.004;2023-04-03T21:27:36;4.10;44.80
6824;DHT22;58633;49.470;11.004;2023-04-03T21:34:55;4.20;45.30
6824;DHT22;58633;49.470;11.004;2023-04-03T21:39:48;4.20;45.50
6824;DHT22;58633;49.470;11.004;2023-04-03T21:42:14;4.20;45.50
6824;DHT22;58633;49.470;11.004;2023-04-03T21:44:39;3.90;45.30
6824;DHT22;58633;49.470;11.004;2023-04-03T21:47:05;3.90;45.40
6824;DHT22;58633;49.470;11.004;2023-04-03T21:49:31;3.90;45.40
6824;DHT22;58633;49.470;11.004;2023-04-03T21:51:57;3.50;45.20
6824;DHT22;58633;49.470;11.004;2023-04-03T21:54:23;4.10;45.80
6824;DHT22;58633;49.470;11.004;2023-04-03T21:56:48;3.50;45.40
6824;DHT22;58633;49.470;11.004;2023-04-03T22:01:42;3.70;45.90
6824;DHT22;58633;49.470;11.004;2023-04-03T22:04:07;3.50;45.80
6824;DHT22;58633;49.470;11.004;2023-04-03T22:06:33;3.90;46.40
6824;DHT22;58633;49.470;11.004;2023-04-03T22:08:58;3.20;45.90
6824;DHT22;58633;49.470;11.004;2023-04-03T22:11:24;3.40;46.20
6824;DHT22;58633;49.470;11.004;2023-04-03T22:13:52;3.50;46.40
6824;DHT22;58633;49.470;11.004;2023-04-03T22:18:44;3.60;46.60
6824;DHT22;58633;49.470;11.004;2023-04-03T22:23:36;3.40;46.70
6824;DHT22;58633;49.470;11.004;2023-04-03T22:26:07;3.30;46.50
6824;DHT22;58633;49.470;11.004;2023-04-03T22:28:35;3.50;47.10
6824;DHT22;58633;49.470;11.004;2023-04-03T22:31:05;3.80;46.80